首页
METAR-TAF:

METAR-TAF

机场 :

底特律, 密歇根州, 美国

纬度: 42-24-33N, 经度: 083-00-36W, 海拔: 191米

当前天气观测

该预报发布于17分钟前的09:53 UTC
风速5节,风向西转西南
温度 -12°C
湿度 85%
气压 1029 hPa
能見度: 16.1公里
天空无云

METAR: KDET 130953Z 25005KT 10SM CLR M12/M14 A3038 RMK AO2 SLP300 T11171144

时间: 05:10 (10:10 UTC)

预报

该预报发布于4小时和50分钟前的05:20 UTC
预报有效从13日的 06点(UTC)到 14日的 06点(UTC)
风速8节,风向西
能見度: 10公里
天空无云
从 13日的 1200点(UTC)
风速6节,风向西转西南
能見度: 10公里
阴天层高于15000英尺
从 13日的 1500点(UTC)
风速10节,风向南转西南
能見度: 10公里
阴天层高于12000英尺
从 13日的 2000点(UTC)
风速8节,风向
能見度: 10公里
阴天层高于8000英尺

TAF: KDET 130520Z 1306/1406 26008KT P6SM SKC FM131200 24006KT P6SM OVC150 FM131500 20010KT P6SM OVC120 FM132000 19008KT P6SM OVC080

超过4000个机场的气象观测和天气预报(METAR&TAF报告)。

可查询的气象台以黄色和红色小点在地图上表示。

将鼠标移到小点上方,可查看气象台名称。

然后点击查看天气观测和预报。

如需切换地图:点击带黑十字的绿色按钮放大地图;点击带横线的绿色按钮缩小地图;或者点击绿色箭头查看邻近地区的地图。


METAR-TAF: